PST,Max TemperatureF,Mean TemperatureF,Min TemperatureF,Max Dew PointF,MeanDew PointF,Min DewpointF,Max Humidity, Mean Humidity, Min Humidity, Max Sea Level PressureIn, Mean Sea Level PressureIn, Min Sea Level PressureIn, Max VisibilityMiles, Mean VisibilityMiles, Min VisibilityMiles, Max Wind SpeedMPH, Mean Wind SpeedMPH, Max Gust SpeedMPH,PrecipitationIn, CloudCover, Events, WindDirDegrees
2013-1-1,58,48,37,43,36,27,93,67,40,30.22,30.17,30.11,10,10,8,7,1,12,0.00,3,,244
2013-1-2,62,48,33,43,36,29,89,63,36,30.14,30.09,30.06,10,10,8,12,2,15,0.00,0,,233
2013-1-3,66,50,33,44,34,25,92,58,23,30.18,30.12,30.06,10,10,8,12,2,15,0.00,0,,262
2013-1-4,65,49,33,38,32,20,89,54,19,30.26,30.21,30.17,10,10,9,8,1,9,0.00,0,,194
2013-1-5,61,48,35,48,41,30,93,67,40,30.30,30.22,30.18,10,8,2,9,3,,0.10,4,Rain,149
2013-1-6,56,48,40,48,44,40,93,78,63,30.20,30.13,30.04,10,7,0,21,5,30,0.23,5,Fog-Rain,334
2013-1-7,66,53,40,45,38,32,86,60,34,30.13,30.06,30.01,10,10,9,16,4,21,0.00,1,,211
2013-1-8,70,54,37,51,41,34,93,61,28,30.10,30.06,30.04,10,10,9,9,1,10,0.00,0,,242
2013-1-9,60,50,40,52,46,38,93,83,72,30.12,30.06,30.00,10,7,3,9,2,12,0.00,2,,240
2013-1-10,57,51,44,47,32,26,100,66,32,30.14,30.03,29.97,10,10,6,36,9,28,0.01,1,,306
2013-1-11,58,45,32,34,29,25,82,56,30,30.20,30.14,30.09,10,10,10,37,6,61,0.00,0,,327
2013-1-12,55,44,33,34,29,21,82,56,30,30.18,30.11,30.08,10,10,10,10,4,14,0.00,0,,292
2013-1-13,55,43,30,34,29,24,85,60,35,30.18,30.10,30.04,10,10,10,16,5,18,0.00,0,,282
2013-1-14,54,41,27,36,28,21,82,61,39,30.36,30.28,30.15,10,10,9,12,3,22,0.00,0,,220
2013-1-15,57,44,31,41,34,26,89,70,50,30.45,30.39,30.35,10,10,7,14,3,16,0.00,0,,254
2013-1-16,65,49,32,41,31,26,85,55,24,30.36,30.27,30.17,10,10,9,12,2,15,0.00,0,,287
2013-1-17,71,52,32,38,33,27,89,55,20,30.18,30.13,30.07,10,10,10,10,2,14,0.00,0,,264
2013-1-18,74,55,35,37,31,19,82,48,13,30.15,30.10,30.06,10,10,10,12,3,14,0.00,0,,275
2013-1-19,77,56,34,35,29,15,79,45,10,30.17,30.12,30.08,10,10,9,9,1,10,0.00,0,,243
2013-1-20,76,56,36,34,29,19,76,45,13,30.13,30.09,30.03,10,10,9,9,2,,0.00,0,,262
2013-1-21,77,56,34,36,29,17,82,46,10,30.11,30.04,29.98,10,10,10,10,2,13,0.00,0,,251
2013-1-22,76,56,35,37,32,18,76,45,13,30.08,30.04,30.02,10,10,8,14,2,,0.00,1,,167
2013-1-23,68,57,46,48,40,34,72,52,31,30.08,30.03,30.01,10,10,7,15,3,32,0.01,6,Rain,102
2013-1-24,60,58,55,56,55,49,100,89,77,30.15,30.11,30.06,10,4,1,15,4,18,1.48,8,Rain,101
2013-1-25,62,58,54,58,56,54,100,92,84,30.12,30.04,29.97,9,4,2,9,2,12,0.18,8,Rain,258
2013-1-26,65,57,48,56,54,47,100,84,67,29.98,29.93,29.88,10,4,0,15,2,,0.03,4,Fog-Rain,143
2013-1-27,63,53,43,45,38,30,100,67,34,30.07,30.01,29.97,10,9,2,22,7,37,0.00,0,,316
2013-1-28,63,52,40,40,33,26,70,48,25,30.19,30.13,30.08,10,10,10,21,8,25,0.00,1,,321
2013-1-29,63,51,38,45,38,32,83,62,40,30.22,30.19,30.14,10,10,10,16,5,20,0.00,2,,155
2013-1-30,62,51,39,48,43,37,93,70,46,30.33,30.26,30.22,10,10,7,12,2,21,0.00,0,,187
2013-1-31,68,54,40,51,44,38,96,69,42,30.23,30.17,30.11,10,9,6,9,2,12,0.00,0,,245